Time;durP1;ratioP1;P1;durP2;ratioP2;P2;SDS_P1;SDS_P2;PMS_P1;PMS_P2;Temp;Humidity;BMP_temperature;BMP_pressure;BME280_temperature;BME280_humidity;BME280_pressure;Samples;Min_cycle;Max_cycle;Signal;HPM_P1;HPM_P2
2022/06/03 09:50:18;;;;;;;12.20;2.35;;;;;;;28.29;39.46;96422.44;2086478;28;20923;-62
2022/06/03 09:52:08;;;;;;;10.10;2.60;;;;;;;28.46;39.05;96422.25;2087065;28;20199;-63
2022/06/03 09:52:57;;;;;;;2.85;2.20;;;;;;;27.62;41.18;96423.28;2072494;28;20336;-63
2022/06/03 09:53:59;;;;;;;10.50;2.40;;;;;;;28.33;40.68;96423.72;2078148;28;20238;-63
2022/06/03 09:55:07;;;;;;;9.88;2.58;;;;;;;28.59;39.63;96427.75;2078765;28;20204;-63
2022/06/03 09:56:32;;;;;;;5.20;2.35;;;;;;;29.14;39.10;96427.38;2078344;28;20692;-63
2022/06/03 09:57:39;;;;;;;15.73;2.65;;;;;;;29.51;38.22;96424.66;2078486;28;20573;-63
2022/06/03 09:58:43;;;;;;;5.88;2.40;;;;;;;29.81;37.49;96430.69;2078826;28;20236;-63
2022/06/03 09:59:54;;;;;;;9.02;2.63;;;;;;;29.97;36.73;96427.75;2078475;28;20201;-63
2022/06/03 10:00:57;;;;;;;4.97;2.42;;;;;;;29.74;37.35;96430.66;2078740;28;20208;-63
2022/06/03 10:01:59;;;;;;;4.45;2.45;;;;;;;30.10;36.07;96436.94;2078049;28;20235;-65
2022/06/03 10:03:01;;;;;;;9.38;2.60;;;;;;;30.34;35.62;96427.56;2094485;28;20199;-64
2022/06/03 10:04:06;;;;;;;4.93;2.40;;;;;;;29.51;37.36;96435.41;2084537;28;20231;-64
2022/06/03 10:05:08;;;;;;;2.92;2.20;;;;;;;29.08;37.59;96434.38;2078581;28;20192;-64
2022/06/03 10:06:43;;;;;;;7.53;2.63;;;;;;;29.72;36.51;96432.69;2078716;28;20205;-64
2022/06/03 10:07:34;;;;;;;5.97;2.27;;;;;;;29.88;36.85;96433.47;2076877;28;21017;-64
2022/06/03 10:12:49;;;;;;;12.63;2.60;;;;;;;28.43;38.07;96439.56;2078498;28;20445;-64
2022/06/03 10:13:51;;;;;;;4.70;2.40;;;;;;;28.67;38.52;96426.84;2078627;28;20778;-67
2022/06/03 10:16:13;;;;;;;12.57;2.73;;;;;;;29.63;36.57;96436.56;2078591;28;20422;-67
2022/06/03 10:17:15;;;;;;;6.30;2.43;;;;;;;29.83;37.00;96438.56;2069065;28;20462;-67
2022/06/03 10:18:25;;;;;;;5.63;2.00;;;;;;;30.00;37.15;96437.28;2083833;28;20428;-64
2022/06/03 10:19:33;;;;;;;5.33;2.23;;;;;;;29.95;36.63;96440.56;2078174;28;20450;-64
2022/06/03 10:20:36;;;;;;;5.43;2.17;;;;;;;29.97;37.00;96432.31;2078576;28;20434;-64
2022/06/03 10:21:37;;;;;;;8.13;2.33;;;;;;;29.80;37.27;96440.63;2071865;28;20418;-64
2022/06/03 10:22:40;;;;;;;6.53;2.50;;;;;;;29.86;37.09;96447.09;2094076;28;20827;-64
2022/06/03 10:23:53;;;;;;;6.57;2.60;;;;;;;29.86;36.94;96438.19;2089899;28;20440;-64
2022/06/03 10:24:56;;;;;;;3.60;2.00;;;;;;;29.91;37.27;96444.66;2078584;28;20437;-65
2022/06/03 10:26:01;;;;;;;10.13;2.40;;;;;;;29.92;36.47;96435.56;2078265;28;20438;-65
2022/06/03 10:27:05;;;;;;;5.30;2.10;;;;;;;30.16;35.70;96444.22;2077335;28;20446;-64
2022/06/03 10:28:09;;;;;;;7.07;2.10;;;;;;;29.76;36.66;96434.00;2077218;28;20450;-64
2022/06/03 10:29:16;;;;;;;6.13;2.37;;;;;;;29.65;37.00;96429.97;2078559;28;20430;-65
2022/06/03 10:30:34;;;;;;;5.10;2.10;;;;;;;29.51;36.25;96438.94;2078442;28;20469;-65
2022/06/03 10:31:36;;;;;;;11.00;2.40;;;;;;;29.35;36.19;96433.84;2071200;28;20439;-63
2022/06/03 10:32:38;;;;;;;4.50;2.17;;;;;;;29.71;36.11;96443.66;2094343;28;20420;-63
2022/06/03 10:33:52;;;;;;;5.63;1.60;;;;;;;30.07;35.42;96430.09;2090372;28;20409;-64
2022/06/03 10:35:13;;;;;;;2.77;2.23;;;;;;;28.92;36.92;96434.59;2078420;28;20425;-63
2022/06/03 10:36:14;;;;;;;10.50;2.80;;;;;;;29.01;37.98;96430.75;2077809;28;20441;-64
2022/06/03 10:37:24;;;;;;;12.63;2.40;;;;;;;29.61;37.44;96430.53;2082164;28;20860;-63
2022/06/03 10:38:28;;;;;;;5.67;2.53;;;;;;;29.81;37.36;96430.69;2094137;28;20421;-64
2022/06/03 10:39:31;;;;;;;17.93;3.03;;;;;;;30.04;37.77;96438.56;2078351;28;20427;-64
2022/06/03 10:40:34;;;;;;;11.47;3.40;;;;;;;30.17;37.51;96436.97;2078193;28;20423;-63
2022/06/03 10:41:43;;;;;;;50.13;3.93;;;;;;;30.07;37.50;96438.16;2068924;28;20434;-64
2022/06/03 10:42:46;;;;;;;7.57;2.70;;;;;;;30.22;37.00;96432.66;2094046;28;20429;-63
2022/06/03 10:43:48;;;;;;;5.13;2.67;;;;;;;30.41;36.38;96431.13;2086504;28;20434;-64
2022/06/03 10:44:56;;;;;;;5.93;3.30;;;;;;;30.53;36.19;96414.44;2078122;28;20521;-63
2022/06/03 10:46:16;;;;;;;6.43;2.13;;;;;;;29.93;37.04;96422.97;2078202;28;20438;-63
2022/06/03 10:47:20;;;;;;;4.57;2.20;;;;;;;29.91;37.43;96416.94;2077874;28;20446;-62
2022/06/03 10:48:25;;;;;;;3.20;2.13;;;;;;;30.40;36.47;96415.16;2077295;28;20438;-62
2022/06/03 10:49:30;;;;;;;17.33;2.63;;;;;;;29.96;37.06;96414.50;2078048;28;21071;-63
2022/06/03 10:50:35;;;;;;;5.00;2.40;;;;;;;29.63;36.62;96415.03;2078272;28;20462;-63
2022/06/03 11:01:30;;;;;;;9.07;2.53;;;;;;;27.83;40.66;96455.59;2064557;28;20771;-66
2022/06/03 12:15:40;;;;;;;6.78;3.00;;;;;;;26.85;45.74;96422.28;2085453;28;20557;-63
2022/06/03 12:32:39;;;;;;;36.17;24.63;;;;;;;26.66;45.23;96402.09;2082806;27;20628;-64
2022/06/03 12:33:53;;;;;;;19.38;11.95;;;;;;;26.95;44.85;96412.16;2081337;28;20201;-64
2022/06/03 12:35:33;;;;;;;6.28;4.20;;;;;;;27.13;45.13;96408.38;2081610;28;20205;-64
